sensor_id;sensor_type;location;lat;lon;timestamp;temperature;humidity
5848;DHT22;8756;49.29324300;8.70599800;2023-02-11T00:00:08;0.20;99.90
5848;DHT22;8756;49.29324300;8.70599800;2023-02-11T00:02:35;0.20;99.90
5848;DHT22;8756;49.29324300;8.70599800;2023-02-11T00:05:00;0.20;99.90
5848;DHT22;8756;49.29324300;8.70599800;2023-02-11T00:07:31;0.20;99.90
5848;DHT22;8756;49.29324300;8.70599800;2023-02-11T00:09:57;0.20;99.90
5848;DHT22;8756;49.29324300;8.70599800;2023-02-11T00:12:23;0.20;99.90
5848;DHT22;8756;49.29324300;8.70599800;2023-02-11T00:14:49;0.10;99.90
5848;DHT22;8756;49.29324300;8.70599800;2023-02-11T00:17:15;0.10;99.90
5848;DHT22;8756;49.29324300;8.70599800;2023-02-11T00:19:41;0.10;99.90
5848;DHT22;8756;49.29324300;8.70599800;2023-02-11T00:22:07;0.20;99.90
5848;DHT22;8756;49.29324300;8.70599800;2023-02-11T00:24:32;0.20;99.90
5848;DHT22;8756;49.29324300;8.70599800;2023-02-11T00:26:58;0.30;99.90
5848;DHT22;8756;49.29324300;8.70599800;2023-02-11T00:29:24;0.40;99.90
5848;DHT22;8756;49.29324300;8.70599800;2023-02-11T00:31:50;0.40;99.90
5848;DHT22;8756;49.29324300;8.70599800;2023-02-11T00:34:15;0.50;99.90
5848;DHT22;8756;49.29324300;8.70599800;2023-02-11T00:36:41;0.60;99.90
5848;DHT22;8756;49.29324300;8.70599800;2023-02-11T00:39:08;0.60;99.90
5848;DHT22;8756;49.29324300;8.70599800;2023-02-11T00:41:33;0.70;99.90
5848;DHT22;8756;49.29324300;8.70599800;2023-02-11T00:44:00;0.70;99.90
5848;DHT22;8756;49.29324300;8.70599800;2023-02-11T00:46:26;0.80;99.90
5848;DHT22;8756;49.29324300;8.70599800;2023-02-11T00:48:52;0.80;99.90
5848;DHT22;8756;49.29324300;8.70599800;2023-02-11T00:51:26;0.90;99.90
5848;DHT22;8756;49.29324300;8.70599800;2023-02-11T00:53:52;0.90;99.90
5848;DHT22;8756;49.29324300;8.70599800;2023-02-11T00:56:19;0.90;99.90
5848;DHT22;8756;49.29324300;8.70599800;2023-02-11T00:58:45;1.00;99.90
5848;DHT22;8756;49.29324300;8.70599800;2023-02-11T01:01:11;1.00;99.90
5848;DHT22;8756;49.29324300;8.70599800;2023-02-11T01:03:37;1.00;99.90
5848;DHT22;8756;49.29324300;8.70599800;2023-02-11T01:06:04;1.10;99.90
5848;DHT22;8756;49.29324300;8.70599800;2023-02-11T01:08:30;1.10;99.90
5848;DHT22;8756;49.29324300;8.70599800;2023-02-11T01:10:58;1.10;99.90
5848;DHT22;8756;49.29324300;8.70599800;2023-02-11T01:13:25;1.10;99.90
5848;DHT22;8756;49.29324300;8.70599800;2023-02-11T01:15:51;1.10;99.90
5848;DHT22;8756;49.29324300;8.70599800;2023-02-11T01:18:17;1.10;99.90
5848;DHT22;8756;49.29324300;8.70599800;2023-02-11T01:20:43;1.10;99.90
5848;DHT22;8756;49.29324300;8.70599800;2023-02-11T01:23:09;1.10;99.90
5848;DHT22;8756;49.29324300;8.70599800;2023-02-11T01:25:34;1.10;99.90
5848;DHT22;8756;49.29324300;8.70599800;2023-02-11T01:28:00;1.10;99.90
5848;DHT22;8756;49.29324300;8.70599800;2023-02-11T01:30:26;1.10;99.90
5848;DHT22;8756;49.29324300;8.70599800;2023-02-11T01:32:51;1.10;99.90
5848;DHT22;8756;49.29324300;8.70599800;2023-02-11T01:35:18;1.10;99.90
5848;DHT22;8756;49.29324300;8.70599800;2023-02-11T01:37:43;1.10;99.90
5848;DHT22;8756;49.29324300;8.70599800;2023-02-11T01:40:16;1.10;99.90
5848;DHT22;8756;49.29324300;8.70599800;2023-02-11T01:42:42;1.10;99.90
5848;DHT22;8756;49.29324300;8.70599800;2023-02-11T01:45:41;1.10;99.90
5848;DHT22;8756;49.29324300;8.70599800;2023-02-11T01:48:22;1.10;99.90
5848;DHT22;8756;49.29324300;8.70599800;2023-02-11T01:50:53;1.10;99.90
5848;DHT22;8756;49.29324300;8.70599800;2023-02-11T01:53:22;1.10;99.90
5848;DHT22;8756;49.29324300;8.70599800;2023-02-11T01:56:07;1.10;99.90
5848;DHT22;8756;49.29324300;8.70599800;2023-02-11T01:58:52;1.10;99.90
5848;DHT22;8756;49.29324300;8.70599800;2023-02-11T02:01:22;1.10;99.90
5848;DHT22;8756;49.29324300;8.70599800;2023-02-11T02:03:53;1.10;99.90
5848;DHT22;8756;49.29324300;8.70599800;2023-02-11T02:06:30;1.10;99.90
5848;DHT22;8756;49.29324300;8.70599800;2023-02-11T02:09:04;1.10;99.90
5848;DHT22;8756;49.29324300;8.70599800;2023-02-11T02:11:33;1.10;99.90
5848;DHT22;8756;49.29324300;8.70599800;2023-02-11T02:13:59;1.20;99.90
5848;DHT22;8756;49.29324300;8.70599800;2023-02-11T02:16:33;1.20;99.90
5848;DHT22;8756;49.29324300;8.70599800;2023-02-11T02:19:45;1.20;99.90
5848;DHT22;8756;49.29324300;8.70599800;2023-02-11T02:22:59;1.20;99.90
5848;DHT22;8756;49.29324300;8.70599800;2023-02-11T02:29:04;1.10;99.90
5848;DHT22;8756;49.29324300;8.70599800;2023-02-11T02:35:00;1.20;99.90
5848;DHT22;8756;49.29324300;8.70599800;2023-02-11T02:40:24;1.20;99.90
5848;DHT22;8756;49.29324300;8.70599800;2023-02-11T02:42:56;1.20;99.90
5848;DHT22;8756;49.29324300;8.70599800;2023-02-11T02:45:23;1.20;99.90
5848;DHT22;8756;49.29324300;8.70599800;2023-02-11T02:47:48;1.30;99.90
5848;DHT22;8756;49.29324300;8.70599800;2023-02-11T02:50:16;1.30;99.90
5848;DHT22;8756;49.29324300;8.70599800;2023-02-11T02:59:07;1.20;99.90
5848;DHT22;8756;49.29324300;8.70599800;2023-02-11T03:07:29;1.20;99.90
5848;DHT22;8756;49.29324300;8.70599800;2023-02-11T03:10:08;1.20;99.90
5848;DHT22;8756;49.29324300;8.70599800;2023-02-11T03:12:38;1.20;99.90
5848;DHT22;8756;49.29324300;8.70599800;2023-02-11T03:15:06;1.20;99.90
5848;DHT22;8756;49.29324300;8.70599800;2023-02-11T03:17:34;1.20;99.90
5848;DHT22;8756;49.29324300;8.70599800;2023-02-11T03:20:02;1.20;99.90
5848;DHT22;8756;49.29324300;8.70599800;2023-02-11T03:22:40;1.20;99.90
5848;DHT22;8756;49.29324300;8.70599800;2023-02-11T03:25:08;1.20;99.90
5848;DHT22;8756;49.29324300;8.70599800;2023-02-11T03:28:06;1.20;99.90
5848;DHT22;8756;49.29324300;8.70599800;2023-02-11T03:30:45;1.20;99.90
5848;DHT22;8756;49.29324300;8.70599800;2023-02-11T03:33:29;1.20;99.90
5848;DHT22;8756;49.29324300;8.70599800;2023-02-11T03:36:11;1.20;99.90
5848;DHT22;8756;49.29324300;8.70599800;2023-02-11T03:38:46;1.20;99.90
5848;DHT22;8756;49.29324300;8.70599800;2023-02-11T03:41:15;1.20;99.90
5848;DHT22;8756;49.29324300;8.70599800;2023-02-11T03:43:47;1.20;99.90
5848;DHT22;8756;49.29324300;8.70599800;2023-02-11T03:46:17;1.30;99.90
5848;DHT22;8756;49.29324300;8.70599800;2023-02-11T03:48:51;1.30;99.90
5848;DHT22;8756;49.29324300;8.70599800;2023-02-11T03:51:20;1.30;99.90
5848;DHT22;8756;49.29324300;8.70599800;2023-02-11T03:53:46;1.30;99.90
5848;DHT22;8756;49.29324300;8.70599800;2023-02-11T03:56:19;1.30;99.90
5848;DHT22;8756;49.29324300;8.70599800;2023-02-11T03:58:47;1.30;99.90
5848;DHT22;8756;49.29324300;8.70599800;2023-02-11T04:01:13;1.40;99.90
5848;DHT22;8756;49.29324300;8.70599800;2023-02-11T04:03:39;1.40;99.90
5848;DHT22;8756;49.29324300;8.70599800;2023-02-11T04:06:05;1.30;99.90
5848;DHT22;8756;49.29324300;8.70599800;2023-02-11T04:08:31;1.30;99.90
5848;DHT22;8756;49.29324300;8.70599800;2023-02-11T04:10:57;1.30;99.90
5848;DHT22;8756;49.29324300;8.70599800;2023-02-11T04:13:24;1.30;99.90
5848;DHT22;8756;49.29324300;8.70599800;2023-02-11T04:15:50;1.30;99.90
5848;DHT22;8756;49.29324300;8.70599800;2023-02-11T04:18:15;1.30;99.90
5848;DHT22;8756;49.29324300;8.70599800;2023-02-11T04:20:41;1.30;99.90
5848;DHT22;8756;49.29324300;8.70599800;2023-02-11T04:23:07;1.30;99.90
5848;DHT22;8756;49.29324300;8.70599800;2023-02-11T04:25:32;1.30;99.90
5848;DHT22;8756;49.29324300;8.70599800;2023-02-11T04:27:58;1.30;99.90
5848;DHT22;8756;49.29324300;8.70599800;2023-02-11T04:30:24;1.40;99.90
5848;DHT22;8756;49.29324300;8.70599800;2023-02-11T04:32:49;1.40;99.90
5848;DHT22;8756;49.29324300;8.70599800;2023-02-11T04:35:15;1.40;99.90
5848;DHT22;8756;49.29324300;8.70599800;2023-02-11T04:37:41;1.40;99.90
5848;DHT22;8756;49.29324300;8.70599800;2023-02-11T04:40:07;1.40;99.90
5848;DHT22;8756;49.29324300;8.70599800;2023-02-11T04:42:33;1.40;99.90
5848;DHT22;8756;49.29324300;8.70599800;2023-02-11T04:44:58;1.40;99.90
5848;DHT22;8756;49.29324300;8.70599800;2023-02-11T04:47:24;1.40;99.90
5848;DHT22;8756;49.29324300;8.70599800;2023-02-11T04:49:50;1.40;99.90
5848;DHT22;8756;49.29324300;8.70599800;2023-02-11T04:52:15;1.40;99.90
5848;DHT22;8756;49.29324300;8.70599800;2023-02-11T04:54:41;1.40;99.90
5848;DHT22;8756;49.29324300;8.70599800;2023-02-11T04:57:07;1.40;99.90
5848;DHT22;8756;49.29324300;8.70599800;2023-02-11T04:59:32;1.40;99.90
5848;DHT22;8756;49.29324300;8.70599800;2023-02-11T05:01:58;1.40;99.90
5848;DHT22;8756;49.29324300;8.70599800;2023-02-11T05:04:24;1.40;99.90
5848;DHT22;8756;49.29324300;8.70599800;2023-02-11T05:06:49;1.40;99.90
5848;DHT22;8756;49.29324300;8.70599800;2023-02-11T05:09:15;1.40;99.90
5848;DHT22;8756;49.29324300;8.70599800;2023-02-11T05:11:41;1.40;99.90
5848;DHT22;8756;49.29324300;8.70599800;2023-02-11T05:14:07;1.30;99.90
5848;DHT22;8756;49.29324300;8.70599800;2023-02-11T05:16:32;1.30;99.90
5848;DHT22;8756;49.29324300;8.70599800;2023-02-11T05:18:58;1.30;99.90
5848;DHT22;8756;49.29324300;8.70599800;2023-02-11T05:21:24;1.40;99.90
5848;DHT22;8756;49.29324300;8.70599800;2023-02-11T05:23:50;1.40;99.90
5848;DHT22;8756;49.29324300;8.70599800;2023-02-11T05:26:16;1.40;99.90
5848;DHT22;8756;49.29324300;8.70599800;2023-02-11T05:28:43;1.40;99.90
5848;DHT22;8756;49.29324300;8.70599800;2023-02-11T05:31:09;1.40;99.90
5848;DHT22;8756;49.29324300;8.70599800;2023-02-11T05:33:35;1.40;99.90
5848;DHT22;8756;49.29324300;8.70599800;2023-02-11T05:36:04;1.40;99.90
5848;DHT22;8756;49.29324300;8.70599800;2023-02-11T05:38:32;1.40;99.90
5848;DHT22;8756;49.29324300;8.70599800;2023-02-11T05:40:58;1.40;99.90
5848;DHT22;8756;49.29324300;8.70599800;2023-02-11T05:43:24;1.40;99.90
5848;DHT22;8756;49.29324300;8.70599800;2023-02-11T05:45:49;1.40;99.90
5848;DHT22;8756;49.29324300;8.70599800;2023-02-11T05:48:15;1.40;99.90
5848;DHT22;8756;49.29324300;8.70599800;2023-02-11T05:50:41;1.40;99.90
5848;DHT22;8756;49.29324300;8.70599800;2023-02-11T05:53:07;1.50;99.90
5848;DHT22;8756;49.29324300;8.70599800;2023-02-11T05:55:32;1.50;99.90
5848;DHT22;8756;49.29324300;8.70599800;2023-02-11T05:57:58;1.50;99.90
5848;DHT22;8756;49.29324300;8.70599800;2023-02-11T06:00:24;1.40;99.90
5848;DHT22;8756;49.29324300;8.70599800;2023-02-11T06:02:50;1.40;99.90
5848;DHT22;8756;49.29324300;8.70599800;2023-02-11T06:05:16;1.40;99.90
5848;DHT22;8756;49.29324300;8.70599800;2023-02-11T06:07:42;1.30;99.90
5848;DHT22;8756;49.29324300;8.70599800;2023-02-11T06:10:08;1.30;99.90
5848;DHT22;8756;49.29324300;8.70599800;2023-02-11T06:12:35;1.30;99.90
5848;DHT22;8756;49.29324300;8.70599800;2023-02-11T06:15:01;1.20;99.90
5848;DHT22;8756;49.29324300;8.70599800;2023-02-11T06:17:27;1.20;99.90
5848;DHT22;8756;49.29324300;8.70599800;2023-02-11T06:19:57;1.30;99.90
5848;DHT22;8756;49.29324300;8.70599800;2023-02-11T06:22:22;1.30;99.90
5848;DHT22;8756;49.29324300;8.70599800;2023-02-11T06:24:48;1.30;99.90
5848;DHT22;8756;49.29324300;8.70599800;2023-02-11T06:27:13;1.30;99.90
5848;DHT22;8756;49.29324300;8.70599800;2023-02-11T06:29:39;1.30;99.90
5848;DHT22;8756;49.29324300;8.70599800;2023-02-11T06:32:05;1.40;99.90
5848;DHT22;8756;49.29324300;8.70599800;2023-02-11T06:34:30;1.40;99.90
5848;DHT22;8756;49.29324300;8.70599800;2023-02-11T06:36:56;1.40;99.90
5848;DHT22;8756;49.29324300;8.70599800;2023-02-11T06:39:22;1.40;99.90
5848;DHT22;8756;49.29324300;8.70599800;2023-02-11T06:41:47;1.40;99.90
5848;DHT22;8756;49.29324300;8.70599800;2023-02-11T06:44:13;1.40;99.90
5848;DHT22;8756;49.29324300;8.70599800;2023-02-11T06:46:38;1.40;99.90
5848;DHT22;8756;49.29324300;8.70599800;2023-02-11T06:49:04;1.40;99.90
5848;DHT22;8756;49.29324300;8.70599800;2023-02-11T06:51:29;1.40;99.90
5848;DHT22;8756;49.29324300;8.70599800;2023-02-11T06:53:55;1.40;99.90
5848;DHT22;8756;49.29324300;8.70599800;2023-02-11T06:56:22;1.40;99.90
5848;DHT22;8756;49.29324300;8.70599800;2023-02-11T06:58:52;1.40;99.90
5848;DHT22;8756;49.29324300;8.70599800;2023-02-11T07:01:22;1.40;99.90
5848;DHT22;8756;49.29324300;8.70599800;2023-02-11T07:03:49;1.40;99.90
5848;DHT22;8756;49.29324300;8.70599800;2023-02-11T07:06:17;1.40;99.90
5848;DHT22;8756;49.29324300;8.70599800;2023-02-11T07:08:46;1.40;99.90
5848;DHT22;8756;49.29324300;8.70599800;2023-02-11T07:11:16;1.40;99.90
5848;DHT22;8756;49.29324300;8.70599800;2023-02-11T07:13:44;1.50;99.90
5848;DHT22;8756;49.29324300;8.70599800;2023-02-11T07:16:13;1.50;99.90
5848;DHT22;8756;49.29324300;8.70599800;2023-02-11T07:18:40;1.40;99.90
5848;DHT22;8756;49.29324300;8.70599800;2023-02-11T07:21:07;1.50;99.90
5848;DHT22;8756;49.29324300;8.70599800;2023-02-11T07:23:35;1.50;99.90
5848;DHT22;8756;49.29324300;8.70599800;2023-02-11T07:26:09;1.50;99.90
5848;DHT22;8756;49.29324300;8.70599800;2023-02-11T07:28:37;1.40;99.90
5848;DHT22;8756;49.29324300;8.70599800;2023-02-11T07:31:08;1.50;99.90
5848;DHT22;8756;49.29324300;8.70599800;2023-02-11T07:33:36;1.50;99.90
5848;DHT22;8756;49.29324300;8.70599800;2023-02-11T07:36:04;1.40;99.90
5848;DHT22;8756;49.29324300;8.70599800;2023-02-11T07:38:31;1.40;99.90
5848;DHT22;8756;49.29324300;8.70599800;2023-02-11T07:41:09;1.40;99.90
5848;DHT22;8756;49.29324300;8.70599800;2023-02-11T07:43:36;1.50;99.90
5848;DHT22;8756;49.29324300;8.70599800;2023-02-11T07:46:04;1.50;99.90
5848;DHT22;8756;49.29324300;8.70599800;2023-02-11T07:48:32;1.50;99.90
5848;DHT22;8756;49.29324300;8.70599800;2023-02-11T07:51:12;1.50;99.90
5848;DHT22;8756;49.29324300;8.70599800;2023-02-11T07:53:39;1.50;99.90
5848;DHT22;8756;49.29324300;8.70599800;2023-02-11T07:56:06;1.50;99.90
5848;DHT22;8756;49.29324300;8.70599800;2023-02-11T07:58:32;1.50;99.90
5848;DHT22;8756;49.29324300;8.70599800;2023-02-11T08:01:02;1.50;99.90
5848;DHT22;8756;49.29324300;8.70599800;2023-02-11T08:03:30;1.50;99.90
5848;DHT22;8756;49.29324300;8.70599800;2023-02-11T08:05:56;1.50;99.90
5848;DHT22;8756;49.29324300;8.70599800;2023-02-11T08:08:24;1.50;99.90
5848;DHT22;8756;49.29324300;8.70599800;2023-02-11T08:10:51;1.60;99.90
5848;DHT22;8756;49.29324300;8.70599800;2023-02-11T08:13:16;1.60;99.90
5848;DHT22;8756;49.29324300;8.70599800;2023-02-11T08:15:42;1.60;99.90
5848;DHT22;8756;49.29324300;8.70599800;2023-02-11T08:18:08;1.60;99.90
5848;DHT22;8756;49.29324300;8.70599800;2023-02-11T08:20:33;1.60;99.90
5848;DHT22;8756;49.29324300;8.70599800;2023-02-11T08:22:59;1.60;99.90
5848;DHT22;8756;49.29324300;8.70599800;2023-02-11T08:25:26;1.60;99.90
5848;DHT22;8756;49.29324300;8.70599800;2023-02-11T08:27:52;1.60;99.90
5848;DHT22;8756;49.29324300;8.70599800;2023-02-11T08:30:18;1.60;99.90
5848;DHT22;8756;49.29324300;8.70599800;2023-02-11T08:32:44;1.60;99.90
5848;DHT22;8756;49.29324300;8.70599800;2023-02-11T08:35:10;1.60;99.90
5848;DHT22;8756;49.29324300;8.70599800;2023-02-11T08:37:37;1.70;99.90
5848;DHT22;8756;49.29324300;8.70599800;2023-02-11T08:40:03;1.70;99.90
5848;DHT22;8756;49.29324300;8.70599800;2023-02-11T08:42:29;1.80;99.90
5848;DHT22;8756;49.29324300;8.70599800;2023-02-11T08:44:55;1.80;99.90
5848;DHT22;8756;49.29324300;8.70599800;2023-02-11T08:47:20;1.90;99.90
5848;DHT22;8756;49.29324300;8.70599800;2023-02-11T08:49:46;1.90;99.90
5848;DHT22;8756;49.29324300;8.70599800;2023-02-11T08:52:11;1.90;99.90
5848;DHT22;8756;49.29324300;8.70599800;2023-02-11T08:54:37;2.00;99.90
5848;DHT22;8756;49.29324300;8.70599800;2023-02-11T08:57:03;2.00;99.90
5848;DHT22;8756;49.29324300;8.70599800;2023-02-11T08:59:29;2.00;99.90
5848;DHT22;8756;49.29324300;8.70599800;2023-02-11T09:01:55;2.10;99.90
5848;DHT22;8756;49.29324300;8.70599800;2023-02-11T09:04:22;2.10;99.90
5848;DHT22;8756;49.29324300;8.70599800;2023-02-11T09:06:48;2.10;99.90
5848;DHT22;8756;49.29324300;8.70599800;2023-02-11T09:09:14;2.20;99.90
5848;DHT22;8756;49.29324300;8.70599800;2023-02-11T09:11:41;2.20;99.90
5848;DHT22;8756;49.29324300;8.70599800;2023-02-11T09:14:18;2.30;99.90
5848;DHT22;8756;49.29324300;8.70599800;2023-02-11T09:16:45;2.30;99.90
5848;DHT22;8756;49.29324300;8.70599800;2023-02-11T09:19:11;2.30;99.90
5848;DHT22;8756;49.29324300;8.70599800;2023-02-11T09:21:36;2.40;99.90
5848;DHT22;8756;49.29324300;8.70599800;2023-02-11T09:24:02;2.40;99.90
5848;DHT22;8756;49.29324300;8.70599800;2023-02-11T09:26:32;2.50;99.90
5848;DHT22;8756;49.29324300;8.70599800;2023-02-11T09:28:59;2.50;99.90
5848;DHT22;8756;49.29324300;8.70599800;2023-02-11T09:31:27;2.50;99.90
5848;DHT22;8756;49.29324300;8.70599800;2023-02-11T09:33:57;2.60;99.90
5848;DHT22;8756;49.29324300;8.70599800;2023-02-11T09:36:27;2.60;99.90
5848;DHT22;8756;49.29324300;8.70599800;2023-02-11T09:38:57;2.70;99.90
5848;DHT22;8756;49.29324300;8.70599800;2023-02-11T09:44:25;2.80;99.90
5848;DHT22;8756;49.29324300;8.70599800;2023-02-11T09:46:58;2.90;99.90
5848;DHT22;8756;49.29324300;8.70599800;2023-02-11T09:49:38;2.90;99.90
5848;DHT22;8756;49.29324300;8.70599800;2023-02-11T09:52:17;3.00;99.90
5848;DHT22;8756;49.29324300;8.70599800;2023-02-11T09:54:58;3.00;99.90
5848;DHT22;8756;49.29324300;8.70599800;2023-02-11T09:57:35;3.10;99.90
5848;DHT22;8756;49.29324300;8.70599800;2023-02-11T10:00:51;3.20;99.90
5848;DHT22;8756;49.29324300;8.70599800;2023-02-11T10:09:23;3.40;99.90
5848;DHT22;8756;49.29324300;8.70599800;2023-02-11T10:17:27;3.60;99.90
5848;DHT22;8756;49.29324300;8.70599800;2023-02-11T10:22:56;3.90;99.90
5848;DHT22;8756;49.29324300;8.70599800;2023-02-11T10:25:28;4.00;99.90
5848;DHT22;8756;49.29324300;8.70599800;2023-02-11T10:28:00;4.10;99.90
5848;DHT22;8756;49.29324300;8.70599800;2023-02-11T10:36:33;4.30;99.90
5848;DHT22;8756;49.29324300;8.70599800;2023-02-11T10:41:49;4.50;99.90
5848;DHT22;8756;49.29324300;8.70599800;2023-02-11T10:44:36;4.60;99.90
5848;DHT22;8756;49.29324300;8.70599800;2023-02-11T10:47:18;4.70;99.90
5848;DHT22;8756;49.29324300;8.70599800;2023-02-11T10:49:46;4.80;99.90
5848;DHT22;8756;49.29324300;8.70599800;2023-02-11T10:55:00;4.90;99.90
5848;DHT22;8756;49.29324300;8.70599800;2023-02-11T10:57:36;5.00;99.90
5848;DHT22;8756;49.29324300;8.70599800;2023-02-11T11:00:34;5.00;99.90
5848;DHT22;8756;49.29324300;8.70599800;2023-02-11T11:03:04;5.10;99.90
5848;DHT22;8756;49.29324300;8.70599800;2023-02-11T11:05:36;5.10;99.90
5848;DHT22;8756;49.29324300;8.70599800;2023-02-11T11:08:10;5.20;99.90
5848;DHT22;8756;49.29324300;8.70599800;2023-02-11T11:10:41;5.20;99.90
5848;DHT22;8756;49.29324300;8.70599800;2023-02-11T11:13:34;5.30;99.90
5848;DHT22;8756;49.29324300;8.70599800;2023-02-11T11:16:26;5.40;99.90
5848;DHT22;8756;49.29324300;8.70599800;2023-02-11T11:19:14;5.50;99.90
5848;DHT22;8756;49.29324300;8.70599800;2023-02-11T11:21:47;5.60;99.90
5848;DHT22;8756;49.29324300;8.70599800;2023-02-11T11:27:05;5.80;99.90
5848;DHT22;8756;49.29324300;8.70599800;2023-02-11T11:29:42;5.80;99.90
5848;DHT22;8756;49.29324300;8.70599800;2023-02-11T11:32:24;5.80;99.90
5848;DHT22;8756;49.29324300;8.70599800;2023-02-11T11:35:00;5.90;99.90
5848;DHT22;8756;49.29324300;8.70599800;2023-02-11T11:37:31;6.00;99.90
5848;DHT22;8756;49.29324300;8.70599800;2023-02-11T11:42:41;6.10;99.90
5848;DHT22;8756;49.29324300;8.70599800;2023-02-11T11:48:17;6.20;99.90
5848;DHT22;8756;49.29324300;8.70599800;2023-02-11T11:50:51;6.20;99.90
5848;DHT22;8756;49.29324300;8.70599800;2023-02-11T11:53:43;6.20;99.90
5848;DHT22;8756;49.29324300;8.70599800;2023-02-11T11:56:14;6.20;99.90
5848;DHT22;8756;49.29324300;8.70599800;2023-02-11T11:58:41;6.20;99.90
5848;DHT22;8756;49.29324300;8.70599800;2023-02-11T12:01:31;6.30;99.90
5848;DHT22;8756;49.29324300;8.70599800;2023-02-11T12:04:29;6.40;99.90
5848;DHT22;8756;49.29324300;8.70599800;2023-02-11T12:12:59;6.50;99.90
5848;DHT22;8756;49.29324300;8.70599800;2023-02-11T12:15:55;6.40;99.90
5848;DHT22;8756;49.29324300;8.70599800;2023-02-11T12:25:45;6.40;99.90
5848;DHT22;8756;49.29324300;8.70599800;2023-02-11T12:28:39;6.50;99.90
5848;DHT22;8756;49.29324300;8.70599800;2023-02-11T12:31:54;6.50;99.90
5848;DHT22;8756;49.29324300;8.70599800;2023-02-11T12:37:31;6.60;99.90
5848;DHT22;8756;49.29324300;8.70599800;2023-02-11T12:40:28;6.60;99.90
5848;DHT22;8756;49.29324300;8.70599800;2023-02-11T12:43:22;6.70;99.90
5848;DHT22;8756;49.29324300;8.70599800;2023-02-11T12:49:33;6.80;99.90
5848;DHT22;8756;49.29324300;8.70599800;2023-02-11T12:55:21;6.90;99.90
5848;DHT22;8756;49.29324300;8.70599800;2023-02-11T12:57:49;6.90;99.90
5848;DHT22;8756;49.29324300;8.70599800;2023-02-11T13:00:22;6.90;99.90
5848;DHT22;8756;49.29324300;8.70599800;2023-02-11T13:03:11;6.90;99.90
5848;DHT22;8756;49.29324300;8.70599800;2023-02-11T13:05:53;7.00;99.90
5848;DHT22;8756;49.29324300;8.70599800;2023-02-11T13:08:26;7.00;99.90
5848;DHT22;8756;49.29324300;8.70599800;2023-02-11T13:10:57;7.00;99.90
5848;DHT22;8756;49.29324300;8.70599800;2023-02-11T13:13:34;7.10;99.90
5848;DHT22;8756;49.29324300;8.70599800;2023-02-11T13:16:29;7.10;99.90
5848;DHT22;8756;49.29324300;8.70599800;2023-02-11T13:22:16;7.20;99.90
5848;DHT22;8756;49.29324300;8.70599800;2023-02-11T13:25:03;7.30;99.90
5848;DHT22;8756;49.29324300;8.70599800;2023-02-11T13:30:23;7.30;99.90
5848;DHT22;8756;49.29324300;8.70599800;2023-02-11T13:35:38;7.40;99.90
5848;DHT22;8756;49.29324300;8.70599800;2023-02-11T13:38:17;7.40;99.90
5848;DHT22;8756;49.29324300;8.70599800;2023-02-11T13:41:27;7.40;99.90
5848;DHT22;8756;49.29324300;8.70599800;2023-02-11T13:46:52;7.50;99.90
5848;DHT22;8756;49.29324300;8.70599800;2023-02-11T13:49:26;7.60;99.90
5848;DHT22;8756;49.29324300;8.70599800;2023-02-11T13:51:55;7.70;99.90
5848;DHT22;8756;49.29324300;8.70599800;2023-02-11T13:54:34;7.70;99.90
5848;DHT22;8756;49.29324300;8.70599800;2023-02-11T13:57:24;7.70;99.90
5848;DHT22;8756;49.29324300;8.70599800;2023-02-11T13:59:53;7.80;99.90
5848;DHT22;8756;49.29324300;8.70599800;2023-02-11T14:23:50;7.80;99.90
5848;DHT22;8756;49.29324300;8.70599800;2023-02-11T14:28:53;7.70;99.90
5848;DHT22;8756;49.29324300;8.70599800;2023-02-11T14:31:42;7.70;99.90
5848;DHT22;8756;49.29324300;8.70599800;2023-02-11T14:34:43;7.70;99.90
5848;DHT22;8756;49.29324300;8.70599800;2023-02-11T14:40:37;7.60;99.90
5848;DHT22;8756;49.29324300;8.70599800;2023-02-11T14:43:17;7.50;99.90
5848;DHT22;8756;49.29324300;8.70599800;2023-02-11T14:45:50;7.50;99.90
5848;DHT22;8756;49.29324300;8.70599800;2023-02-11T14:48:19;7.50;99.90
5848;DHT22;8756;49.29324300;8.70599800;2023-02-11T14:50:59;7.50;99.90
5848;DHT22;8756;49.29324300;8.70599800;2023-02-11T14:53:28;7.40;99.90
5848;DHT22;8756;49.29324300;8.70599800;2023-02-11T14:55:55;7.40;99.90
5848;DHT22;8756;49.29324300;8.70599800;2023-02-11T14:58:23;7.30;99.90
5848;DHT22;8756;49.29324300;8.70599800;2023-02-11T15:01:05;7.30;99.90
5848;DHT22;8756;49.29324300;8.70599800;2023-02-11T15:03:48;7.30;99.90
5848;DHT22;8756;49.29324300;8.70599800;2023-02-11T15:06:30;7.30;99.90
5848;DHT22;8756;49.29324300;8.70599800;2023-02-11T15:09:00;7.30;99.90
5848;DHT22;8756;49.29324300;8.70599800;2023-02-11T15:11:33;7.20;99.90
5848;DHT22;8756;49.29324300;8.70599800;2023-02-11T15:14:09;7.20;99.90
5848;DHT22;8756;49.29324300;8.70599800;2023-02-11T15:16:41;7.20;99.90
5848;DHT22;8756;49.29324300;8.70599800;2023-02-11T15:19:20;7.20;99.90
5848;DHT22;8756;49.29324300;8.70599800;2023-02-11T15:22:07;7.10;99.90
5848;DHT22;8756;49.29324300;8.70599800;2023-02-11T15:24:45;7.10;99.90
5848;DHT22;8756;49.29324300;8.70599800;2023-02-11T15:27:22;7.10;99.90
5848;DHT22;8756;49.29324300;8.70599800;2023-02-11T15:29:50;7.10;99.90
5848;DHT22;8756;49.29324300;8.70599800;2023-02-11T15:32:22;7.00;99.90
5848;DHT22;8756;49.29324300;8.70599800;2023-02-11T15:34:50;7.10;99.90
5848;DHT22;8756;49.29324300;8.70599800;2023-02-11T15:37:21;7.00;99.90
5848;DHT22;8756;49.29324300;8.70599800;2023-02-11T15:39:50;7.00;99.90
5848;DHT22;8756;49.29324300;8.70599800;2023-02-11T15:42:29;7.10;99.90
5848;DHT22;8756;49.29324300;8.70599800;2023-02-11T15:48:06;7.00;99.90
5848;DHT22;8756;49.29324300;8.70599800;2023-02-11T15:50:35;7.00;99.90
5848;DHT22;8756;49.29324300;8.70599800;2023-02-11T15:53:15;7.00;99.90
5848;DHT22;8756;49.29324300;8.70599800;2023-02-11T15:55:45;7.00;99.90
5848;DHT22;8756;49.29324300;8.70599800;2023-02-11T15:58:11;7.00;99.90
5848;DHT22;8756;49.29324300;8.70599800;2023-02-11T16:00:45;6.90;99.90
5848;DHT22;8756;49.29324300;8.70599800;2023-02-11T16:03:19;6.90;99.90
5848;DHT22;8756;49.29324300;8.70599800;2023-02-11T16:05:47;6.90;99.90
5848;DHT22;8756;49.29324300;8.70599800;2023-02-11T16:08:22;6.90;99.90
5848;DHT22;8756;49.29324300;8.70599800;2023-02-11T16:10:54;6.80;99.90
5848;DHT22;8756;49.29324300;8.70599800;2023-02-11T16:13:23;6.80;99.90
5848;DHT22;8756;49.29324300;8.70599800;2023-02-11T16:16:01;6.80;99.90
5848;DHT22;8756;49.29324300;8.70599800;2023-02-11T16:18:43;6.80;99.90
5848;DHT22;8756;49.29324300;8.70599800;2023-02-11T16:21:15;6.90;99.90
5848;DHT22;8756;49.29324300;8.70599800;2023-02-11T16:23:42;6.80;99.90